Date,TemperatureHighF,TemperatureAvgF,TemperatureLowF,DewpointHighF,DewpointAvgF,DewpointLowF,HumidityHigh,HumidityAvg,HumidityLow,PressureMaxIn,PressureMinIn,WindSpeedMaxMPH,WindSpeedAvgMPH,GustSpeedMaxMPH,PrecipitationSumIn
2013-2-27,59,54,52,28,26,25,37,35,31,30.22,30.16,0,0,0,0.00
2013-2-28,71,58,46,39,31,24,50,37,31,30.31,30.19,6,0,6,0.00
2013-3-1,74,58,43,40,35,30,62,43,30,30.28,30.13,4,0,4,0.00
2013-3-2,72,61,50,40,37,34,57,43,30,30.13,29.96,4,0,4,0.00
2013-3-3,64,58,51,45,40,37,60,51,43,29.98,29.90,6,0,6,0.00
2013-3-4,66,54,44,46,39,36,85,60,37,30.01,29.90,5,0,5,0.00
2013-3-5,63,52,44,37,32,27,66,48,31,29.93,29.75,6,1,8,0.00
2013-3-6,58,52,47,44,34,26,84,52,33,29.96,29.72,6,1,6,0.24
2013-3-7,59,50,39,36,31,27,71,48,33,29.87,29.75,6,1,7,0.00
2013-3-8,66,52,38,38,32,28,73,48,30,29.90,29.66,5,1,5,0.00
2013-3-9,68,54,40,41,34,27,74,49,32,30.16,29.90,10,1,10,0.00
2013-3-10,66,54,41,40,34,24,60,47,38,30.22,30.13,6,0,6,0.00
2013-3-11,72,58,44,44,39,33,72,50,36,30.13,29.98,5,0,5,0.00
2013-3-12,76,62,46,46,41,36,72,49,35,30.04,29.96,6,0,6,0.00
2013-3-13,78,64,50,48,44,40,71,49,35,30.04,29.98,6,0,6,0.00
2013-3-14,79,65,52,49,44,39,63,48,35,30.04,29.96,4,0,5,0.00
2013-3-15,76,60,51,46,44,38,76,58,35,30.01,29.90,5,0,6,0.00
2013-3-16,76,61,48,46,42,36,75,51,35,29.96,29.87,7,0,7,0.00
2013-3-17,70,58,43,43,37,32,72,48,36,29.98,29.90,6,0,6,0.00
2013-3-18,69,58,45,42,37,32,64,46,37,29.98,29.90,5,0,6,0.00
2013-3-19,72,59,50,46,41,36,79,51,36,30.04,29.93,4,0,5,0.12
2013-3-20,64,57,52,59,51,45,96,82,53,30.01,29.96,5,0,5,0.43
2013-3-21,66,57,48,50,43,26,80,61,35,29.99,29.87,8,1,8,0.00
2013-3-22,66,54,42,37,30,22,53,40,35,29.96,29.87,10,2,14,0.00
2013-3-23,69,53,39,42,30,22,55,42,35,30.01,29.90,4,0,4,0.00
2013-3-24,76,58,44,46,34,26,53,42,35,29.96,29.84,5,0,5,0.00
2013-3-25,71,58,45,43,38,32,66,48,37,29.87,29.78,6,1,7,0.00
2013-3-26,72,58,44,44,39,35,74,52,36,29.87,29.78,5,0,5,0.00
2013-3-27,71,60,49,46,42,38,66,53,39,29.90,29.78,8,1,8,0.00
2013-3-28,70,62,56,47,44,41,67,54,37,29.96,29.90,6,0,6,0.00
2013-3-29,80,64,49,50,44,38,77,51,35,29.98,29.90,5,0,5,0.00
2013-3-30,77,63,52,50,43,38,68,50,35,29.93,29.87,5,0,5,0.00
2013-3-31,73,61,54,60,47,39,95,65,36,29.98,29.90,6,1,6,1.14
2013-4-1,72,60,52,54,45,40,89,61,36,30.04,29.96,4,0,4,0.00
2013-4-2,73,60,48,48,43,40,77,56,36,30.04,29.96,6,0,6,0.00
2013-4-3,78,63,49,49,45,42,82,56,35,30.01,29.90,3,0,3,0.00
2013-4-4,66,59,53,60,49,39,93,71,50,30.01,29.90,5,0,5,0.31
2013-4-5,70,60,53,51,46,42,84,61,40,30.07,29.98,5,0,5,0.00
2013-4-6,68,59,51,49,46,43,79,64,48,30.07,29.98,4,1,4,0.00
2013-4-7,69,58,51,48,44,37,76,62,43,30.01,29.78,8,1,8,0.00
2013-4-8,69,57,48,45,38,0,85,53,25,29.87,29.60,12,2,12,0.04
2013-4-9,74,62,47,46,36,26,44,39,35,29.98,29.87,10,2,10,0.00
2013-4-10,86,69,54,54,42,29,52,38,33,30.04,29.93,5,0,5,0.00
2013-4-11,79,65,55,49,44,36,69,49,35,29.93,29.72,6,1,10,0.00
2013-4-12,84,65,49,52,43,35,66,47,33,29.78,29.72,4,0,4,0.00
2013-4-13,79,64,50,49,42,38,62,47,35,29.78,29.69,4,0,4,0.00
2013-4-14,76,61,47,46,40,32,78,49,35,29.78,29.66,6,1,6,0.00
2013-4-15,66,53,45,44,39,35,77,61,38,29.78,29.69,6,1,6,0.20
2013-4-16,68,53,43,41,34,29,74,50,35,30.01,29.78,10,2,10,0.00
2013-4-17,70,59,49,42,33,25,39,38,35,30.10,30.01,9,2,9,0.00
2013-4-18,77,61,45,47,35,23,42,38,35,30.13,30.04,5,0,6,0.00
2013-4-19,84,67,50,52,41,31,54,40,34,30.13,29.98,5,0,5,0.00
2013-4-20,83,66,53,52,42,34,60,43,34,29.99,29.87,8,0,10,0.00
2013-4-21,87,70,50,54,44,32,63,41,33,29.93,29.87,6,0,6,0.00
2013-4-22,89,72,56,56,45,37,60,40,33,29.87,29.78,8,1,8,0.00
2013-4-23,86,70,54,54,42,29,44,36,33,29.84,29.78,6,1,6,0.00
2013-4-24,90,69,52,57,44,32,62,42,32,29.81,29.69,5,0,5,0.00
2013-4-25,77,62,51,47,43,40,74,53,35,29.96,29.81,8,2,8,0.00
2013-4-26,84,64,49,53,45,41,77,53,34,30.10,29.95,5,0,5,0.00
2013-4-27,90,70,51,57,47,40,72,47,32,30.10,29.98,4,1,4,0.00
2013-4-28,91,74,55,57,49,43,69,44,32,29.98,29.84,6,1,6,0.00
2013-4-29,91,75,60,57,49,43,62,42,32,29.84,29.72,3,1,3,0.00
2013-4-30,84,72,61,53,45,36,59,39,34,29.75,29.69,7,2,7,0.00
2013-5-1,90,73,56,57,44,30,38,35,32,30.01,29.75,6,1,6,0.00
2013-5-2,93,76,57,58,46,31,40,35,32,30.10,30.01,6,0,6,0.00
2013-5-3,92,74,58,58,46,35,47,37,32,30.01,29.72,6,0,6,0.00
2013-5-4,91,76,62,57,47,37,43,36,32,29.72,29.48,4,2,4,0.00
2013-5-5,76,65,54,46,43,38,64,45,35,29.75,29.51,3,0,3,0.00
2013-5-6,75,64,58,52,45,42,77,51,36,29.90,29.75,0,0,0,0.00
2013-5-7,73,65,58,50,46,42,72,51,36,29.96,29.90,0,0,0,0.00
2013-5-8,78,64,58,48,46,42,70,54,35,30.04,29.93,0,0,0,0.00
2013-5-9,84,70,52,52,47,44,78,45,34,30.04,29.96,4,1,4,0.00
2013-5-10,87,69,53,55,48,44,74,49,33,30.07,29.98,3,2,5,0.00
2013-5-11,95,77,59,60,51,46,66,43,31,30.04,29.96,6,0,6,0.00
2013-5-12,96,79,63,60,51,41,59,39,31,30.04,29.93,4,1,232,0.00
2013-5-13,95,77,59,60,48,37,50,37,31,29.96,29.87,5,1,5,0.00
2013-5-14,92,74,59,58,49,39,63,42,32,29.87,29.78,7,1,7,0.00
2013-5-15,81,68,55,50,42,37,50,40,34,29.93,29.87,8,1,8,0.00
2013-5-16,75,64,57,48,43,38,59,48,35,29.93,29.81,7,1,8,0.00
2013-5-17,79,63,50,48,42,32,71,49,35,29.96,29.87,8,1,8,0.00
2013-5-18,84,67,49,52,43,33,62,43,34,29.98,29.93,5,1,8,0.00
2013-5-19,86,71,56,53,46,40,61,42,33,29.98,29.90,8,2,8,0.00
2013-5-20,92,75,55,58,48,38,59,38,32,29.93,29.84,4,0,5,0.00
2013-5-21,84,70,57,52,43,36,49,37,33,29.87,29.81,8,2,8,0.00
2013-5-22,74,61,48,46,35,24,51,38,36,29.87,29.78,9,1,9,0.00
2013-5-23,76,62,47,47,39,32,59,43,35,29.90,29.78,6,1,6,0.00
2013-5-24,82,65,49,51,40,32,55,41,34,29.90,29.84,5,1,6,0.00
2013-5-25,80,64,50,50,40,33,57,42,35,29.93,29.87,7,1,7,0.00
2013-5-26,81,65,52,50,44,39,67,47,34,30.01,29.93,6,1,6,0.00
2013-5-27,68,61,53,53,44,40,85,55,40,30.01,29.93,5,1,5,0.04
2013-5-28,80,67,58,60,51,42,94,60,35,29.93,29.81,5,0,5,0.08
2013-5-29,84,70,57,53,47,42,78,47,34,29.87,29.81,5,1,6,0.04
2013-5-30,88,71,54,55,47,40,68,44,33,29.90,29.84,5,1,5,0.00
2013-5-31,94,72,56,59,47,40,61,43,31,29.87,29.81,7,1,8,0.00
2013-6-1,98,80,61,62,51,37,52,36,31,29.84,29.69,5,0,5,0.00
2013-6-2,99,80,62,63,52,42,55,38,30,29.69,29.57,5,0,5,0.00
2013-6-3,94,76,61,59,49,40,53,39,31,29.75,29.60,6,1,6,0.00
2013-6-4,87,69,56,54,47,44,67,47,33,29.84,29.69,6,1,6,0.00
2013-6-5,91,67,55,57,48,44,71,52,32,29.87,29.78,6,1,6,0.00
2013-6-6,96,74,56,61,50,43,70,44,31,29.81,29.72,5,0,5,0.00
2013-6-7,105,82,61,67,54,46,60,40,29,29.78,29.66,6,1,6,0.00
2013-6-8,109,88,70,69,57,46,49,35,28,29.69,29.57,6,1,6,0.00
2013-6-9,84,71,63,52,48,45,59,45,34,29.78,29.66,8,2,8,0.00
2013-6-10,78,66,58,49,47,44,68,51,35,29.87,29.75,8,2,8,0.00
2013-6-11,88,72,56,55,49,44,70,46,33,29.87,29.81,5,0,6,0.00
2013-6-12,90,74,59,57,48,38,60,41,32,29.87,29.78,6,1,8,0.00
2013-6-13,89,72,56,56,45,36,51,38,33,29.96,29.87,5,1,8,0.00
2013-6-14,90,74,57,57,46,34,50,38,32,29.90,29.75,6,1,7,0.00
2013-6-15,91,74,58,57,47,38,54,38,32,29.87,29.69,6,1,6,0.00
2013-6-16,94,75,57,59,48,40,55,39,31,29.96,29.84,5,1,5,0.00
2013-6-17,90,73,58,57,47,39,54,40,32,29.96,29.90,7,2,7,0.00
2013-6-18,80,67,56,50,46,39,69,47,35,29.90,29.84,8,2,8,0.00
2013-6-19,81,68,54,50,44,38,63,44,34,29.93,29.90,6,1,7,0.00
2013-6-20,88,71,54,55,45,37,54,40,33,29.90,29.84,5,1,5,0.00
2013-6-21,90,72,56,52,44,37,57,38,27,29.90,29.81,8,1,8,0.00
2013-6-22,95,77,59,55,45,35,48,32,26,29.84,29.75,7,1,7,0.00
2013-6-23,78,68,61,52,45,34,62,44,30,29.78,29.69,8,1,8,0.00
2013-6-24,71,64,62,60,54,49,89,70,49,29.87,29.72,4,0,4,0.16
2013-6-25,75,68,62,68,60,54,92,75,54,29.93,29.87,4,0,4,0.28
2013-6-26,90,76,62,65,53,45,87,50,27,29.98,29.90,6,1,6,0.00
2013-6-27,98,80,63,58,53,46,68,41,26,29.98,29.96,6,1,6,0.00
2013-6-28,106,84,68,62,55,48,64,40,24,29.99,29.81,5,0,7,0.00
2013-6-29,106,90,71,62,55,46,51,32,24,29.84,29.72,6,1,6,0.00
2013-6-30,108,90,71,63,54,47,50,31,23,29.75,29.66,5,0,5,0.00
2013-7-1,107,89,70,65,54,44,45,31,25,29.78,29.66,5,0,5,0.00
2013-7-2,108,90,77,65,56,47,43,32,25,29.78,29.78,7,1,8,0.00
2013-7-3,110,88,71,66,53,43,44,32,25,29.81,29.69,5,0,5,0.00
2013-7-4,111,91,75,67,57,49,46,33,25,29.72,29.57,7,0,7,0.00
2013-7-5,93,80,68,56,47,38,37,32,28,29.69,29.60,6,1,6,0.00
2013-7-6,92,75,59,56,48,41,61,40,29,29.72,29.63,5,1,5,0.00
2013-7-7,97,79,61,58,48,38,52,35,28,29.81,29.72,4,1,4,0.00
2013-7-8,98,79,60,59,47,35,56,33,28,29.93,29.78,4,1,4,0.00
2013-7-9,103,85,65,62,50,37,37,31,26,29.98,29.90,6,0,6,0.00
2013-7-10,99,78,68,59,45,38,34,32,27,29.93,29.87,3,0,3,0.00
2013-7-11,99,99,99,59,59,59,27,27,27,29.87,29.87,3,3,3,0.00
2013-7-14,76,74,71,44,43,41,34,33,32,29.84,29.81,3,0,4,0.00
2013-7-15,92,73,58,55,45,36,59,37,29,29.81,29.75,7,1,7,0.00
2013-7-16,84,68,56,50,46,41,72,48,30,29.96,29.78,5,1,6,0.00
2013-7-17,96,74,55,58,49,41,75,46,28,29.98,29.93,4,0,4,0.00
2013-7-18,101,78,58,61,50,42,62,39,27,29.96,29.87,5,0,5,0.00
2013-7-19,104,81,61,62,49,37,51,34,26,29.87,29.72,4,0,4,0.00
2013-7-20,104,82,64,62,50,42,50,34,26,29.78,29.63,5,0,5,0.00
2013-7-21,100,81,65,60,49,41,47,34,27,29.81,29.66,6,1,8,0.00
2013-7-22,95,79,66,57,48,40,49,35,28,29.93,29.78,6,0,6,0.00
2013-7-23,95,80,67,62,47,39,72,32,28,29.93,29.81,5,1,5,0.00
2013-7-24,100,82,65,60,49,37,42,31,27,29.90,29.81,5,1,6,0.00
2013-7-25,101,84,68,61,50,41,42,32,27,29.93,29.81,5,1,5,0.00
2013-7-26,99,81,66,60,48,40,45,33,27,29.98,29.90,6,1,6,0.00
2013-7-27,96,77,60,58,49,41,60,38,28,29.93,29.78,5,1,6,0.00
2013-7-28,93,74,62,56,47,38,57,39,28,29.81,29.69,6,1,7,0.00
2013-7-29,87,70,56,52,46,39,69,44,30,29.93,29.72,5,1,5,0.00
2013-7-30,94,73,56,56,48,42,70,44,28,29.96,29.87,4,0,5,0.00
2013-7-31,92,73,58,55,46,37,62,40,29,29.96,29.90,6,1,6,0.00
2013-8-1,89,73,58,54,44,37,54,37,30,29.96,29.84,6,1,6,0.00
2013-8-2,94,76,58,56,47,36,59,37,28,29.87,29.78,5,0,5,0.00
2013-8-3,95,76,59,56,46,38,56,36,28,29.87,29.78,4,1,94,0.00
2013-8-4,92,74,58,56,47,39,62,40,29,29.90,29.81,5,1,5,0.00
2013-8-5,94,73,55,56,48,39,79,45,28,29.90,29.84,4,1,4,0.00
2013-8-6,88,68,56,53,46,42,70,47,30,29.90,29.84,6,1,6,0.00
2013-8-7,82,68,58,50,48,45,70,51,31,29.98,29.90,6,1,6,0.00
2013-8-8,87,70,56,53,48,42,79,49,30,29.93,29.84,6,1,6,0.00
2013-8-9,86,70,56,50,47,42,74,47,30,29.93,29.81,5,0,5,0.00
2013-8-10,89,71,57,54,49,44,76,49,30,29.93,29.87,4,1,4,0.00
2013-8-11,92,74,58,56,49,42,74,45,29,29.93,29.84,6,0,6,0.00
2013-8-12,93,76,58,56,48,40,58,39,29,29.93,29.81,5,1,5,0.00
2013-8-13,98,78,60,59,48,38,53,35,28,29.90,29.84,4,0,4,0.00
2013-8-14,99,76,61,60,46,37,48,34,28,29.87,29.81,5,0,6,0.00
2013-8-15,98,76,61,59,50,42,59,41,28,29.90,29.78,6,1,6,0.00
2013-8-16,99,81,64,60,52,41,57,39,27,29.90,29.84,5,1,6,0.00
2013-8-17,98,80,64,59,49,40,47,34,28,29.87,29.78,6,1,6,0.00
2013-8-18,100,83,66,60,53,47,57,37,27,29.81,29.72,4,0,4,0.00
2013-8-19,103,86,73,62,54,46,46,35,26,29.84,29.69,4,0,5,0.00
2013-8-20,98,81,68,59,50,43,47,34,28,29.81,29.69,5,1,5,0.00
2013-8-21,93,76,64,56,48,42,51,38,29,29.84,29.78,6,1,7,0.00
2013-8-22,89,73,60,53,47,42,58,41,30,29.84,29.78,5,1,6,0.00
2013-8-23,92,70,56,55,48,42,70,48,29,29.81,29.72,5,0,5,0.00
2013-8-24,90,74,61,54,47,43,52,39,29,29.81,29.72,8,1,8,0.00
2013-8-25,90,74,62,56,52,47,74,48,29,29.87,29.78,6,1,6,0.00
2013-8-26,90,73,59,54,50,40,77,46,29,29.90,29.84,5,1,5,0.00
2013-8-27,94,76,60,56,48,41,58,39,28,29.84,29.75,4,0,5,0.00
2013-8-28,94,77,61,56,50,43,58,40,28,29.87,29.72,5,0,5,0.00
2013-8-29,95,77,62,57,52,46,68,44,28,29.96,29.84,6,0,6,0.00
2013-8-30,96,74,61,58,51,42,62,46,28,29.93,29.87,5,0,6,0.00
2013-8-31,96,82,67,58,50,42,46,33,28,29.87,29.81,5,1,6,0.00
2013-9-1,93,76,65,56,47,39,51,36,29,29.87,29.81,6,1,8,0.00
2013-9-2,78,70,68,67,54,49,86,57,44,29.90,29.81,4,0,4,0.16
2013-9-3,87,74,62,55,51,41,70,48,30,29.90,29.84,6,1,6,0.00
2013-9-4,89,73,60,54,48,40,63,43,30,29.98,29.87,6,1,6,0.00
2013-9-5,88,72,59,52,47,42,61,42,30,29.96,29.84,6,1,6,0.00
2013-9-6,92,74,58,55,47,40,59,40,29,29.90,29.78,8,1,8,0.00
2013-9-7,98,80,64,59,48,37,45,33,28,29.81,29.75,5,0,5,0.00
2013-9-8,98,80,63,59,49,40,51,34,28,29.78,29.69,6,1,6,0.00
2013-9-9,99,79,64,60,48,39,46,34,27,29.72,29.60,4,0,5,0.00
2013-9-10,90,76,64,54,48,40,60,38,29,29.81,29.63,6,1,6,0.00
2013-9-11,84,70,60,55,50,46,75,53,31,29.93,29.81,6,0,6,0.00
2013-9-12,88,73,60,56,52,48,77,51,30,29.93,29.81,4,0,4,0.00
2013-9-13,91,75,61,55,50,43,70,45,29,29.81,29.66,4,1,4,0.00
2013-9-14,89,73,60,54,48,44,59,42,30,29.75,29.63,6,0,6,0.00
2013-9-15,88,71,58,53,47,43,60,43,30,29.75,29.66,5,1,5,0.00
2013-9-16,87,72,58,52,48,43,70,46,30,29.84,29.69,5,0,5,0.00
2013-9-17,81,69,57,50,46,41,67,45,31,29.81,29.72,6,1,8,0.00
2013-9-18,84,69,57,50,44,36,62,42,31,29.84,29.75,7,1,7,0.00
2013-9-19,91,72,55,54,44,37,53,38,29,29.78,29.69,4,0,4,0.00
2013-9-20,83,70,57,50,44,34,61,41,31,29.81,29.63,8,1,8,0.00
2013-9-21,71,62,58,58,52,44,92,71,39,29.81,29.72,6,1,8,0.20
2013-9-22,73,62,51,56,45,39,88,58,33,29.90,29.81,6,1,6,0.00
2013-9-23,81,67,53,51,46,42,72,49,31,29.93,29.84,5,0,6,0.00
2013-9-24,78,67,59,50,46,40,63,48,32,29.90,29.78,7,1,7,0.00
2013-9-25,59,59,59,44,44,44,56,56,56,29.81,29.81,0,0,0,0.00
2013-10-7,85,69,52,50,39,28,40,34,30,29.90,29.81,4,0,4,0.00
2013-10-8,74,62,50,43,36,28,49,38,33,29.81,29.60,5,0,5,0.00
2013-10-9,73,61,50,43,36,32,50,40,33,29.66,29.48,6,0,6,0.00
2013-10-10,73,61,51,42,38,32,59,43,33,29.93,29.66,6,1,6,0.00
2013-10-11,75,62,48,44,39,35,63,45,33,29.98,29.90,4,0,4,0.00
2013-10-12,76,62,48,44,39,33,63,45,32,29.93,29.81,5,0,5,0.00
2013-10-13,73,61,49,44,39,33,74,46,33,29.96,29.81,6,1,6,0.00
2013-10-14,75,59,47,44,37,33,62,47,33,30.04,29.93,5,0,5,0.43
2013-10-15,80,61,48,47,37,30,60,42,32,29.96,29.87,5,0,8,0.00
2013-10-16,82,64,50,48,37,26,50,37,31,30.01,29.93,4,0,5,0.00
2013-10-17,79,64,50,46,37,29,49,37,32,29.98,29.90,4,1,5,0.00
2013-10-18,81,64,49,48,36,26,48,36,31,29.98,29.90,4,0,4,0.00
2013-10-19,83,65,49,49,38,29,50,37,31,30.01,29.96,4,0,4,0.00
2013-10-20,80,65,50,48,37,27,48,36,32,29.96,29.84,4,0,4,0.00
2013-10-21,80,65,51,48,38,30,48,37,32,29.93,29.84,3,0,5,0.00
2013-10-22,82,64,50,49,37,28,49,37,31,29.93,29.84,5,0,6,0.00
2013-10-23,58,54,52,31,28,27,38,37,36,29.87,29.84,0,0,0,0.00
2013-10-24,72,64,53,42,40,36,59,42,33,29.98,29.90,4,0,5,0.00
2013-10-25,75,59,47,44,40,36,71,50,33,30.07,29.98,5,0,5,0.00
2013-10-26,78,61,48,45,38,32,57,43,32,30.04,29.93,4,0,4,0.00
2013-10-27,74,58,48,43,37,30,58,46,33,29.93,29.51,8,2,8,0.00
2013-10-28,63,56,47,42,37,32,75,51,35,29.75,29.51,6,1,7,0.00
2013-10-29,64,57,50,40,37,35,59,47,38,29.93,29.75,4,0,5,0.00
2013-10-30,52,48,44,38,35,31,64,61,56,29.98,29.93,3,0,3,0.00
2013-10-31,70,53,43,40,36,32,68,53,34,30.04,29.96,4,0,5,0.00
2013-11-1,73,59,47,43,37,33,60,46,33,30.04,29.93,4,0,4,0.00
2013-11-2,75,70,51,44,41,33,50,35,32,29.93,29.78,4,1,4,0.00
2013-11-4,64,56,50,34,28,24,36,35,33,29.93,29.84,6,1,10,0.00
2013-11-5,68,54,39,39,28,19,51,38,33,30.10,29.93,4,0,5,0.00
2013-11-6,61,51,46,34,28,24,49,41,36,30.13,30.10,0,0,0,0.00
2013-11-7,75,65,52,44,36,27,38,35,32,30.04,29.96,4,0,4,0.00
2013-11-8,74,58,46,43,32,24,47,38,33,29.96,29.84,4,0,4,0.00
2013-11-9,74,58,47,43,36,30,54,43,33,29.93,29.87,3,0,3,0.00
2013-11-10,75,57,45,44,35,29,59,44,33,29.98,29.90,4,0,4,0.00
2013-11-11,73,53,43,42,34,29,64,48,33,30.07,29.95,3,0,4,0.00
2013-11-12,70,60,51,41,36,30,55,41,34,30.13,30.01,0,0,0,0.00
2013-11-13,73,58,45,42,35,30,60,44,33,30.10,29.93,0,0,0,0.00
2013-11-14,69,56,49,40,36,33,64,47,34,29.98,29.72,0,0,0,0.00
2013-11-15,67,53,41,41,33,24,73,50,33,29.72,29.57,8,0,8,0.00
2013-11-16,64,52,43,36,31,23,59,46,35,29.81,29.60,6,0,6,0.00
2013-11-17,64,51,41,41,36,30,68,56,37,29.96,29.78,4,0,5,0.00
2013-11-18,63,52,43,40,37,34,72,58,38,30.01,29.93,5,0,5,0.00
2013-11-19,62,56,50,47,42,38,76,61,48,29.98,29.84,3,0,4,0.00
2013-11-20,57,55,52,55,54,51,96,95,94,29.75,29.72,4,0,4,0.04
2013-11-21,65,54,46,52,41,25,97,68,33,29.87,29.75,8,1,8,0.28
2013-11-22,72,56,44,42,31,20,69,40,32,29.90,29.81,7,1,7,0.00
2013-11-23,64,51,41,46,36,31,83,60,35,30.01,29.87,4,0,4,0.00
2013-11-24,64,51,41,38,34,29,65,54,35,30.10,29.98,4,0,4,0.00
2013-11-25,64,50,41,38,35,32,72,57,35,30.19,30.10,5,0,5,0.00
2013-11-26,63,50,41,42,36,33,78,61,38,30.13,29.93,4,0,4,0.00
2013-11-27,64,52,43,42,36,34,75,57,35,29.93,29.75,4,0,4,0.00
2013-11-28,68,54,44,39,35,32,66,50,34,29.93,29.75,4,0,4,0.00
2013-11-29,68,54,43,39,34,31,65,50,34,30.04,29.93,4,0,4,0.00
2013-11-30,65,53,46,36,35,32,62,52,35,30.13,30.04,4,0,6,0.00
2013-12-1,66,52,42,38,35,30,64,52,35,30.22,30.10,4,0,4,0.00
2013-12-2,67,54,43,41,37,33,71,54,34,30.10,29.81,5,0,5,0.00
2013-12-3,54,49,38,48,30,16,78,49,35,29.81,29.69,6,1,6,0.00
2013-12-4,48,37,30,23,17,13,60,44,36,29.93,29.75,6,0,6,0.00
2013-12-5,48,35,26,24,17,11,69,49,36,30.01,29.90,4,0,4,0.00
2013-12-6,48,43,30,32,23,11,80,45,36,30.04,29.78,6,1,8,0.39
2013-12-7,47,38,31,38,29,21,89,71,48,30.07,29.75,8,1,10,0.08
2013-12-8,43,34,26,23,19,14,74,56,40,30.16,30.07,5,0,5,0.00
2013-12-9,49,35,25,26,20,17,76,56,36,30.31,30.10,4,0,4,0.00
2013-12-10,51,38,28,28,22,18,75,56,36,30.28,30.07,4,0,4,0.00
2013-12-11,56,42,32,31,25,21,71,53,34,30.13,30.04,5,0,5,0.00
2013-12-12,60,43,32,32,25,22,67,51,34,30.13,30.04,4,0,4,0.00
2013-12-13,58,44,34,30,25,21,63,48,34,30.19,30.04,7,0,7,0.00
2013-12-14,60,47,36,33,26,21,62,46,34,30.28,30.16,5,0,5,0.00
2013-12-15,61,45,34,34,28,24,66,52,34,30.25,30.13,4,0,4,0.00
2013-12-16,62,47,36,35,30,26,67,53,36,30.13,30.01,3,0,3,0.00
2013-12-17,62,48,39,37,33,29,73,56,36,30.07,29.90,3,0,4,0.00
2013-12-18,62,48,43,39,35,33,72,61,38,29.90,29.60,4,0,5,0.00
2013-12-19,60,49,40,41,31,17,81,53,34,29.75,29.51,11,1,12,0.00
2013-12-20,57,43,31,29,23,15,63,45,34,29.87,29.75,5,0,5,0.00
2013-12-21,58,45,37,32,27,24,63,50,36,29.98,29.81,4,0,4,0.00
2013-12-22,61,47,38,34,29,26,65,52,36,30.16,29.96,4,0,4,0.00
2013-12-23,63,49,39,35,32,28,68,52,35,30.28,30.13,5,0,5,0.00
2013-12-24,64,48,38,35,32,28,71,55,35,30.19,30.07,4,0,4,0.00
2013-12-25,64,48,38,35,31,28,66,53,35,30.19,30.10,5,0,5,0.00
2013-12-26,67,48,37,38,28,22,63,47,32,30.13,30.07,3,0,3,0.00
2013-12-27,60,45,38,33,27,23,63,49,34,30.13,29.98,3,0,3,0.00
2013-12-28,65,47,34,37,28,23,67,49,32,29.98,29.87,6,1,6,0.00
2013-12-29,63,47,37,35,28,22,60,47,34,30.07,29.96,4,0,4,0.00
2013-12-30,64,48,36,36,28,22,57,47,35,30.13,30.04,4,0,4,0.00
2013-12-31,63,48,40,35,28,24,57,47,33,30.13,30.01,4,0,6,0.00
2014-1-1,64,48,37,36,27,23,56,45,33,30.07,29.98,4,0,5,0.00
2014-1-2,65,49,37,37,30,25,64,49,35,30.04,29.93,5,0,5,0.00